Time;durP1;ratioP1;P1;durP2;ratioP2;P2;SDS_P1;SDS_P2;PMS_P1;PMS_P2;Temp;Humidity;BMP_temperature;BMP_pressure;BME280_temperature;BME280_humidity;BME280_pressure;Samples;Min_cycle;Max_cycle;Signal;HPM_P1;HPM_P2
2021/12/12 00:00:49;;;;;;;29.02;12.55;;;;;;;3.26;95.10;102001.47;5029365;28;20843;-60
2021/12/12 00:03:34;;;;;;;32.42;12.85;;;;;;;3.24;95.17;102003.34;5027676;28;20482;-61
2021/12/12 00:06:05;;;;;;;33.10;11.77;;;;;;;3.23;95.52;102001.66;5022731;28;20022;-61
2021/12/12 00:08:30;;;;;;;33.03;12.02;;;;;;;3.26;94.99;102003.25;5029497;28;20064;-61
2021/12/12 00:11:05;;;;;;;33.13;11.85;;;;;;;3.27;95.74;102013.66;5028959;28;20115;-61
2021/12/12 00:13:50;;;;;;;33.63;12.75;;;;;;;3.27;95.54;101992.69;5031493;28;20040;-61
2021/12/12 00:16:15;;;;;;;33.30;11.65;;;;;;;3.30;95.65;101989.88;5025565;28;20078;-61
2021/12/12 00:18:41;;;;;;;29.10;11.07;;;;;;;3.32;95.90;101995.91;5031376;28;20112;-59
2021/12/12 00:21:08;;;;;;;25.33;10.98;;;;;;;3.33;95.48;101992.34;5030453;28;20121;-60
2021/12/12 00:23:34;;;;;;;30.08;11.23;;;;;;;3.35;95.25;101995.72;5031000;28;20502;-60
2021/12/12 00:25:59;;;;;;;26.75;11.15;;;;;;;3.36;95.60;101997.41;5030658;28;20034;-61
2021/12/12 00:28:26;;;;;;;30.58;11.20;;;;;;;3.36;94.92;101986.09;5031331;28;20094;-61
2021/12/12 00:30:56;;;;;;;24.85;10.07;;;;;;;3.38;94.98;101985.97;5027678;28;20060;-61
2021/12/12 00:33:21;;;;;;;27.92;12.55;;;;;;;3.39;95.06;101980.66;5028717;28;20589;-61
2021/12/12 00:35:49;;;;;;;26.65;10.32;;;;;;;3.40;95.02;101977.09;5034455;28;20116;-60
2021/12/12 00:38:20;;;;;;;31.88;10.80;;;;;;;3.45;94.85;101969.00;5034525;28;20057;-61
2021/12/12 00:40:51;;;;;;;26.83;10.20;;;;;;;3.41;94.93;101972.72;5034675;28;20033;-61
2021/12/12 00:43:24;;;;;;;29.30;10.10;;;;;;;3.46;95.01;101975.94;5032664;28;20061;-61
2021/12/12 00:45:52;;;;;;;28.52;10.00;;;;;;;3.45;94.57;101974.25;5033219;28;20033;-61
2021/12/12 00:48:18;;;;;;;28.10;10.38;;;;;;;3.48;95.52;101971.44;5034677;28;20483;-61
2021/12/12 00:50:45;;;;;;;27.52;10.27;;;;;;;3.47;94.88;101967.13;5033001;28;20554;-61
2021/12/12 00:53:12;;;;;;;31.55;10.48;;;;;;;3.49;94.56;101965.25;5034799;28;20134;-61
2021/12/12 00:55:39;;;;;;;26.45;10.20;;;;;;;3.51;94.79;101968.66;5031758;28;20026;-61
2021/12/12 00:58:09;;;;;;;31.33;10.30;;;;;;;3.47;95.09;101959.25;5032589;28;20476;-61
2021/12/12 01:00:41;;;;;;;30.88;10.55;;;;;;;3.46;95.62;101954.94;5032950;28;20022;-61
2021/12/12 01:03:09;;;;;;;31.55;10.52;;;;;;;3.48;95.79;101953.06;5032213;28;20052;-61
2021/12/12 01:05:36;;;;;;;27.02;10.00;;;;;;;3.48;95.79;101947.81;5032338;28;20462;-61
2021/12/12 01:08:05;;;;;;;27.52;10.15;;;;;;;3.46;95.93;101949.69;5034310;28;20025;-61
2021/12/12 01:10:36;;;;;;;28.40;10.70;;;;;;;3.42;96.28;101938.53;5030454;28;20029;-61
2021/12/12 01:13:04;;;;;;;34.90;11.02;;;;;;;3.47;96.56;101951.38;5033430;28;20037;-61
2021/12/12 01:15:44;;;;;;;30.73;10.48;;;;;;;3.47;96.76;101951.38;5032983;28;20363;-60
2021/12/12 01:18:17;;;;;;;34.15;10.93;;;;;;;3.48;96.10;101951.31;5032412;28;20108;-61
2021/12/12 01:20:55;;;;;;;27.30;10.68;;;;;;;3.49;95.94;101949.50;5033068;28;20129;-61
2021/12/12 01:23:31;;;;;;;32.15;10.35;;;;;;;3.49;96.17;101949.50;5027673;28;20044;-61
2021/12/12 01:25:57;;;;;;;28.83;10.50;;;;;;;3.51;96.23;101950.28;5033988;28;20013;-61
2021/12/12 01:28:26;;;;;;;31.80;11.35;;;;;;;3.47;96.23;101952.22;5033636;28;20224;-61
2021/12/12 01:30:54;;;;;;;35.38;11.30;;;;;;;3.54;96.14;101957.97;5032540;28;20041;-61
2021/12/12 01:33:33;;;;;;;27.08;11.18;;;;;;;3.55;96.63;101954.41;5029548;28;20063;-61
2021/12/12 01:36:22;;;;;;;26.58;10.60;;;;;;;3.57;96.14;101956.94;5032736;28;20026;-61
2021/12/12 01:38:52;;;;;;;31.70;11.10;;;;;;;3.56;96.90;101956.09;5030775;28;20474;-61
2021/12/12 01:41:51;;;;;;;35.53;11.10;;;;;;;3.59;96.89;101961.19;5032880;28;20022;-61
2021/12/12 01:44:27;;;;;;;35.28;11.40;;;;;;;3.55;96.85;101954.41;5033725;28;20032;-62
2021/12/12 01:47:09;;;;;;;30.05;11.10;;;;;;;3.57;96.53;101949.94;5031708;28;20096;-60
2021/12/12 01:49:39;;;;;;;27.92;10.70;;;;;;;3.56;97.34;101948.22;5030388;28;20045;-60
2021/12/12 01:52:07;;;;;;;32.13;11.88;;;;;;;3.55;96.95;101953.59;5032762;28;20036;-60
2021/12/12 01:54:43;;;;;;;31.95;11.90;;;;;;;3.55;97.41;101951.78;5027292;28;20025;-60
2021/12/12 01:57:12;;;;;;;29.08;10.70;;;;;;;3.58;96.99;101954.25;5033138;28;20033;-60
2021/12/12 01:59:38;;;;;;;29.05;10.80;;;;;;;3.60;97.61;101946.28;5032093;28;20532;-60
2021/12/12 02:02:09;;;;;;;29.20;10.48;;;;;;;3.59;97.70;101948.06;5032759;28;20029;-60
2021/12/12 02:04:40;;;;;;;34.45;11.25;;;;;;;3.57;97.49;101942.06;5030395;28;20425;-61
2021/12/12 02:07:07;;;;;;;34.15;11.25;;;;;;;3.60;97.90;101947.13;5032221;28;20044;-61
2021/12/12 02:09:33;;;;;;;29.38;10.80;;;;;;;3.63;97.57;101944.34;5030995;28;20045;-61
2021/12/12 02:12:01;;;;;;;31.23;10.65;;;;;;;3.62;97.54;101940.00;5026265;28;20033;-61
2021/12/12 02:14:31;;;;;;;27.23;10.63;;;;;;;3.60;97.77;101941.88;5027668;28;20041;-61
2021/12/12 02:17:03;;;;;;;28.20;10.80;;;;;;;3.66;98.23;101942.47;5032409;28;20395;-61
2021/12/12 02:19:37;;;;;;;31.08;10.65;;;;;;;3.66;98.04;101942.47;5031293;28;20037;-61
2021/12/12 02:35:50;;;;;;;29.73;9.93;;;;;;;3.76;98.21;101930.50;5028249;28;20111;-61
2021/12/12 02:38:21;;;;;;;31.90;10.32;;;;;;;3.83;97.96;101942.31;5034314;28;20425;-61
2021/12/12 02:40:54;;;;;;;31.25;10.32;;;;;;;3.83;98.45;101938.84;5027801;28;20025;-61
2021/12/12 02:43:21;;;;;;;27.15;9.80;;;;;;;3.86;98.61;101930.81;5030456;28;20625;-60
2021/12/12 02:45:53;;;;;;;31.42;9.95;;;;;;;3.84;98.49;101916.94;5031395;28;20398;-61
2021/12/12 02:48:20;;;;;;;34.03;10.20;;;;;;;3.89;98.34;101905.22;5030956;28;20021;-60
2021/12/12 02:50:51;;;;;;;24.73;9.43;;;;;;;3.89;98.35;101894.72;5031967;28;20034;-61
2021/12/12 02:53:25;;;;;;;28.58;10.05;;;;;;;3.94;99.13;101904.13;5031897;28;20033;-61
2021/12/12 02:56:00;;;;;;;28.98;9.77;;;;;;;3.89;98.70;101905.22;5030312;28;20042;-61
2021/12/12 02:58:26;;;;;;;30.95;9.98;;;;;;;3.92;98.77;101903.34;5026849;28;20044;-61
2021/12/12 03:01:20;;;;;;;24.83;8.77;;;;;;;4.03;98.92;101914.06;5029897;28;20112;-61
2021/12/12 03:03:45;;;;;;;;;;;;;;;4.05;98.11;101904.31;5031893;28;20057;-61
2021/12/12 03:06:14;;;;;;;27.25;9.35;;;;;;;3.98;98.12;101909.09;5023254;28;19917;-61
2021/12/12 03:08:43;;;;;;;30.00;10.80;;;;;;;3.96;99.18;101899.59;5030851;28;20497;-61
2021/12/12 03:11:10;;;;;;;30.30;10.23;;;;;;;3.99;99.84;101902.06;5029647;28;20100;-60
2021/12/12 03:13:36;;;;;;;30.00;10.18;;;;;;;3.99;99.70;101902.06;5030129;28;20432;-61
2021/12/12 03:16:02;;;;;;;33.47;10.43;;;;;;;3.99;99.93;101899.44;5031945;28;20581;-61
2021/12/12 03:18:32;;;;;;;31.77;9.88;;;;;;;3.96;100.00;101895.22;5031674;28;20048;-61
2021/12/12 03:21:03;;;;;;;33.10;10.48;;;;;;;4.03;100.00;101903.56;5030851;28;20029;-61
2021/12/12 03:23:33;;;;;;;24.50;9.80;;;;;;;4.04;99.19;101897.34;5031444;28;20413;-61
2021/12/12 03:26:04;;;;;;;25.80;9.88;;;;;;;4.02;100.00;101884.34;5031208;28;20037;-61
2021/12/12 03:28:32;;;;;;;28.55;10.82;;;;;;;4.04;100.00;101886.84;5031027;28;20044;-60
2021/12/12 03:31:02;;;;;;;29.20;10.25;;;;;;;4.02;100.00;101878.25;5030069;28;20057;-61
2021/12/12 03:33:29;;;;;;;25.65;10.63;;;;;;;4.04;100.00;101879.84;5029502;28;20168;-61
2021/12/12 03:35:56;;;;;;;32.35;10.73;;;;;;;4.06;100.00;101882.38;5031029;28;20441;-61
2021/12/12 03:38:27;;;;;;;31.35;10.80;;;;;;;4.08;100.00;101877.00;5031852;28;20025;-61
2021/12/12 03:40:56;;;;;;;33.03;11.07;;;;;;;4.06;100.00;101865.78;5031142;28;20037;-61
2021/12/12 03:43:21;;;;;;;32.97;11.70;;;;;;;4.12;100.00;101879.38;5030720;28;20102;-61
2021/12/12 03:45:47;;;;;;;25.33;10.82;;;;;;;4.10;100.00;101886.47;5031112;28;20466;-61
2021/12/12 03:48:18;;;;;;;31.58;10.98;;;;;;;4.09;100.00;101884.81;5030861;28;20037;-61
2021/12/12 03:50:45;;;;;;;27.60;10.57;;;;;;;4.09;100.00;101874.31;5030266;28;20485;-60
2021/12/12 03:53:12;;;;;;;30.35;11.20;;;;;;;4.09;100.00;101869.06;5031528;28;20029;-61
2021/12/12 03:55:40;;;;;;;30.08;11.85;;;;;;;4.12;100.00;101876.75;5030436;28;20155;-61
2021/12/12 03:58:07;;;;;;;29.67;12.18;;;;;;;4.11;100.00;101877.69;5031959;28;20025;-61
2021/12/12 04:00:43;;;;;;;28.23;11.70;;;;;;;4.09;100.00;101869.06;5029594;28;20029;-61
2021/12/12 04:03:11;;;;;;;36.30;12.60;;;;;;;4.10;100.00;101875.16;5030742;28;20069;-61
2021/12/12 04:05:36;;;;;;;28.55;12.07;;;;;;;4.20;100.00;101881.53;5030357;28;20037;-61
2021/12/12 04:08:04;;;;;;;29.35;12.30;;;;;;;4.17;100.00;101885.19;5030515;28;20410;-62
2021/12/12 04:10:29;;;;;;;25.90;12.02;;;;;;;4.17;100.00;101886.97;5029796;28;20025;-62
2021/12/12 04:12:57;;;;;;;25.00;12.35;;;;;;;4.22;100.00;101878.81;5031492;28;20107;-62
2021/12/12 04:15:23;;;;;;;29.67;12.38;;;;;;;4.24;100.00;101883.03;5029527;28;20037;-62
2021/12/12 04:17:48;;;;;;;26.27;11.82;;;;;;;4.28;100.00;101888.94;5030438;28;20030;-62
2021/12/12 04:20:32;;;;;;;27.35;11.35;;;;;;;4.27;100.00;101882.84;5030587;28;20418;-62
2021/12/12 04:22:58;;;;;;;23.48;10.90;;;;;;;4.28;100.00;101886.31;5029811;28;20037;-61
2021/12/12 04:25:24;;;;;;;24.83;10.63;;;;;;;4.29;100.00;101893.25;5030845;28;20359;-62
2021/12/12 04:27:51;;;;;;;24.25;10.77;;;;;;;4.30;100.00;101887.06;5030978;28;20079;-62
2021/12/12 04:30:17;;;;;;;23.27;10.70;;;;;;;4.30;100.00;101897.56;5030420;28;20513;-62
2021/12/12 04:32:44;;;;;;;22.73;10.75;;;;;;;4.29;100.00;101893.25;5028919;28;20056;-62
2021/12/12 04:35:15;;;;;;;21.92;9.93;;;;;;;4.31;100.00;101891.38;5030157;28;20053;-62
2021/12/12 04:37:42;;;;;;;26.20;10.13;;;;;;;4.31;100.00;101883.50;5028552;28;20482;-62
2021/12/12 04:40:11;;;;;;;20.73;9.57;;;;;;;4.36;100.00;101880.59;5031472;28;20466;-62
2021/12/12 04:42:38;;;;;;;23.27;9.77;;;;;;;4.32;100.00;101879.94;5028564;28;20463;-62
2021/12/12 04:45:20;;;;;;;22.60;10.07;;;;;;;4.42;100.00;101882.84;5028132;28;20131;-62
2021/12/12 04:51:20;;;;;;;23.35;9.65;;;;;;;4.39;100.00;101886.50;5030976;28;20092;-62
2021/12/12 04:54:01;;;;;;;20.25;9.48;;;;;;;4.39;100.00;101881.25;5029892;28;20104;-62
2021/12/12 04:56:32;;;;;;;19.95;9.40;;;;;;;4.38;100.00;101884.81;5028919;28;20355;-61
2021/12/12 04:59:04;;;;;;;18.48;10.35;;;;;;;4.39;100.00;101891.75;5028846;28;20028;-62
2021/12/12 05:01:54;;;;;;;18.50;9.88;;;;;;;4.46;100.00;101896.63;5029457;28;20041;-62
2021/12/12 05:04:37;;;;;;;23.38;9.70;;;;;;;4.48;100.00;101889.50;5022839;28;20487;-62
2021/12/12 05:07:15;;;;;;;20.10;9.85;;;;;;;4.49;100.00;101893.81;5028270;28;20056;-62
2021/12/12 05:09:52;;;;;;;20.35;9.65;;;;;;;4.50;100.00;101906.00;5029965;28;20121;-62
2021/12/12 05:12:30;;;;;;;18.27;9.77;;;;;;;4.49;100.00;101896.44;5028908;28;20033;-62
2021/12/12 05:15:00;;;;;;;18.83;9.07;;;;;;;4.49;100.00;101897.25;5028027;28;20061;-62
2021/12/12 05:17:39;;;;;;;20.17;9.35;;;;;;;4.53;100.00;101911.91;5030336;28;20029;-62
2021/12/12 05:20:10;;;;;;;19.83;9.25;;;;;;;4.53;100.00;101908.41;5029511;28;20037;-62
2021/12/12 05:22:45;;;;;;;17.75;9.90;;;;;;;4.51;100.00;101910.31;5032737;28;20390;-61
2021/12/12 05:25:15;;;;;;;20.88;9.57;;;;;;;4.55;100.00;101911.81;5033894;28;20033;-62
2021/12/12 05:27:41;;;;;;;18.50;9.63;;;;;;;4.60;100.00;101915.00;5032273;28;20045;-62
2021/12/12 05:30:12;;;;;;;17.40;9.00;;;;;;;4.61;100.00;101919.31;5032937;28;20120;-62
2021/12/12 05:32:39;;;;;;;19.63;9.35;;;;;;;4.58;100.00;101911.63;5030277;28;20030;-62
2021/12/12 05:35:07;;;;;;;17.48;9.75;;;;;;;4.58;100.00;101906.34;5032400;28;20430;-62
2021/12/12 05:37:34;;;;;;;16.50;9.70;;;;;;;4.56;100.00;101903.00;5024894;28;20499;-62
2021/12/12 05:40:03;;;;;;;17.27;9.90;;;;;;;4.57;100.00;101895.03;5031578;28;20029;-62
2021/12/12 05:42:30;;;;;;;16.85;9.52;;;;;;;4.61;100.00;101910.56;5032178;28;20713;-62
2021/12/12 05:44:58;;;;;;;16.48;8.82;;;;;;;4.64;100.00;101911.22;5031024;28;20047;-62
2021/12/12 05:47:23;;;;;;;18.67;9.02;;;;;;;4.69;100.00;101914.41;5031095;28;20067;-63
2021/12/12 05:49:49;;;;;;;16.67;9.38;;;;;;;4.67;100.00;101915.44;5032358;28;20041;-62
2021/12/12 05:52:18;;;;;;;16.77;8.80;;;;;;;4.69;100.00;101910.97;5032430;28;20037;-62
2021/12/12 05:54:46;;;;;;;16.45;9.57;;;;;;;4.72;100.00;101923.91;5033415;28;20029;-62
2021/12/12 05:57:12;;;;;;;15.55;8.80;;;;;;;4.74;100.00;101923.81;5031398;28;20548;-62
2021/12/12 05:59:39;;;;;;;15.95;9.23;;;;;;;4.76;100.00;101924.53;5030578;28;20033;-61
2021/12/12 06:02:06;;;;;;;14.90;9.32;;;;;;;4.79;100.00;101930.44;5030301;28;20029;-61
2021/12/12 06:04:34;;;;;;;17.77;9.45;;;;;;;4.79;100.00;101934.88;5026895;28;20049;-62
2021/12/12 06:07:03;;;;;;;17.35;9.10;;;;;;;4.81;100.00;101938.25;5023920;28;20045;-62
2021/12/12 06:09:29;;;;;;;17.48;9.52;;;;;;;4.85;100.00;101937.13;5023398;28;20033;-61
2021/12/12 06:11:54;;;;;;;16.88;9.27;;;;;;;4.87;100.00;101935.22;5023599;28;20044;-62
2021/12/12 06:14:23;;;;;;;15.40;9.40;;;;;;;4.89;100.00;101935.97;5023387;28;20390;-62
2021/12/12 06:16:49;;;;;;;18.23;9.90;;;;;;;4.89;100.00;101946.47;5025427;28;20026;-62
2021/12/12 06:19:17;;;;;;;17.40;10.07;;;;;;;4.91;100.00;101938.50;5026616;28;20084;-62
2021/12/12 06:21:44;;;;;;;17.35;10.77;;;;;;;4.93;100.00;101942.72;5024455;28;20037;-62
2021/12/12 06:24:10;;;;;;;16.60;10.57;;;;;;;4.93;100.00;101947.97;5025691;28;20049;-62
2021/12/12 06:26:36;;;;;;;22.63;10.85;;;;;;;4.92;100.00;101938.41;5025198;28;20045;-62
2021/12/12 06:29:02;;;;;;;18.27;10.52;;;;;;;4.97;100.00;101938.97;5025476;28;20052;-62
2021/12/12 06:31:28;;;;;;;19.58;11.20;;;;;;;4.96;100.00;101937.28;5026460;28;20120;-62
2021/12/12 06:33:55;;;;;;;23.75;11.82;;;;;;;4.91;100.00;101931.47;5030950;28;21919;-62
2021/12/12 06:36:20;;;;;;;18.17;10.95;;;;;;;5.02;100.00;101938.66;5030682;28;20033;-62
2021/12/12 06:38:49;;;;;;;20.27;11.93;;;;;;;4.98;100.00;101940.66;5030474;28;20414;-62
2021/12/12 06:41:15;;;;;;;20.42;11.40;;;;;;;5.03;100.00;101939.53;5026990;28;20025;-62
2021/12/12 06:43:42;;;;;;;21.67;11.25;;;;;;;5.04;100.00;101942.03;5030980;28;20029;-62
2021/12/12 06:46:08;;;;;;;19.88;11.07;;;;;;;5.06;100.00;101936.69;5030773;28;20021;-62
2021/12/12 06:48:34;;;;;;;17.23;10.52;;;;;;;5.11;100.00;101950.38;5029533;28;20131;-62
2021/12/12 06:51:01;;;;;;;20.42;11.65;;;;;;;5.10;100.00;101943.44;5031392;28;20596;-62
2021/12/12 06:53:29;;;;;;;19.77;11.48;;;;;;;5.12;100.00;101941.53;5031811;28;20039;-62
2021/12/12 06:55:56;;;;;;;23.58;11.95;;;;;;;5.16;100.00;101944.81;5031588;28;20033;-62
2021/12/12 06:58:25;;;;;;;22.92;12.55;;;;;;;5.15;100.00;101951.88;5029977;28;20036;-61
2021/12/12 07:00:56;;;;;;;20.25;11.73;;;;;;;5.16;100.00;101950.94;5026551;28;20180;-62
2021/12/12 07:03:23;;;;;;;21.88;12.55;;;;;;;5.22;100.00;101947.06;5027836;28;20053;-62
2021/12/12 07:05:48;;;;;;;22.42;12.32;;;;;;;5.22;100.00;101949.69;5029899;28;20034;-62
2021/12/12 07:08:16;;;;;;;23.98;12.80;;;;;;;5.23;100.00;101946.97;5029558;28;20044;-62
2021/12/12 07:10:42;;;;;;;20.90;11.70;;;;;;;5.36;100.00;101954.06;5030478;28;20398;-62
2021/12/12 07:13:07;;;;;;;21.88;12.45;;;;;;;5.34;100.00;101950.69;5027276;28;20025;-62
2021/12/12 07:15:44;;;;;;;23.10;13.18;;;;;;;5.31;100.00;101945.63;5026817;28;20117;-62
2021/12/12 07:18:13;;;;;;;22.33;12.13;;;;;;;5.38;100.00;101957.47;5028160;28;20040;-62
2021/12/12 07:20:39;;;;;;;23.08;13.20;;;;;;;5.34;100.00;101945.44;5030052;28;20052;-62
2021/12/12 07:23:11;;;;;;;20.88;13.07;;;;;;;5.32;100.00;101942.06;5029115;28;20398;-62
2021/12/12 07:25:38;;;;;;;23.13;13.27;;;;;;;5.38;100.00;101947.75;5027784;28;20618;-62
2021/12/12 07:28:04;;;;;;;25.55;13.10;;;;;;;5.38;100.00;101957.47;5030309;28;20486;-62
2021/12/12 07:30:30;;;;;;;22.65;12.98;;;;;;;5.51;100.00;101953.06;5028937;28;20036;-62
2021/12/12 07:32:56;;;;;;;22.80;13.80;;;;;;;5.46;100.00;101954.31;5029523;28;20034;-62
2021/12/12 07:35:21;;;;;;;22.52;13.43;;;;;;;5.55;100.00;101955.50;5029306;28;20486;-62
2021/12/12 07:37:48;;;;;;;22.83;13.35;;;;;;;5.47;100.00;101954.22;5027786;28;20025;-61
2021/12/12 07:40:14;;;;;;;24.88;13.52;;;;;;;5.47;100.00;101956.84;5026004;28;20029;-62
2021/12/12 07:42:41;;;;;;;22.58;13.02;;;;;;;5.49;100.00;101954.94;5021617;28;20029;-62
2021/12/12 07:45:07;;;;;;;26.20;14.40;;;;;;;5.57;100.00;101961.50;5023876;28;20057;-62
2021/12/12 07:47:33;;;;;;;29.58;14.15;;;;;;;5.55;100.00;101964.25;5023118;28;20046;-62
2021/12/12 07:49:59;;;;;;;28.70;14.95;;;;;;;5.55;100.00;101966.00;5022154;28;20037;-62
2021/12/12 07:52:28;;;;;;;26.42;14.23;;;;;;;5.52;100.00;101970.53;5024657;28;20038;-62
2021/12/12 07:54:55;;;;;;;25.60;14.32;;;;;;;5.54;100.00;101970.44;5025297;28;20500;-62
2021/12/12 07:57:22;;;;;;;25.35;14.60;;;;;;;5.59;100.00;101962.25;5023008;28;20037;-62
2021/12/12 07:59:48;;;;;;;26.45;14.20;;;;;;;5.59;100.00;101971.00;5020147;28;20033;-62
2021/12/12 08:02:15;;;;;;;27.83;14.90;;;;;;;5.57;100.00;101967.59;5022113;28;20116;-62
2021/12/12 08:04:43;;;;;;;31.05;14.93;;;;;;;5.60;100.00;101977.09;5020451;28;20057;-62
2021/12/12 08:07:12;;;;;;;29.48;15.55;;;;;;;5.62;100.00;101977.81;5020200;28;20083;-62
2021/12/12 08:09:42;;;;;;;28.60;14.63;;;;;;;5.62;100.00;101980.44;5020758;28;20074;-62
2021/12/12 08:12:09;;;;;;;29.98;15.32;;;;;;;5.65;100.00;101983.75;5021007;28;20366;-62
2021/12/12 08:14:35;;;;;;;28.83;13.65;;;;;;;5.84;100.00;101985.16;5020350;28;21574;-62
2021/12/12 08:17:01;;;;;;;29.48;15.23;;;;;;;5.75;100.00;101986.63;5021161;28;20100;-62
2021/12/12 08:19:27;;;;;;;31.98;14.93;;;;;;;5.79;100.00;101988.06;5019107;28;20505;-62
2021/12/12 08:21:58;;;;;;;31.08;15.52;;;;;;;5.78;100.00;102001.38;5021689;28;20029;-62
2021/12/12 08:24:24;;;;;;;32.30;15.48;;;;;;;5.78;100.00;102004.81;5021121;28;20037;-62
2021/12/12 08:26:49;;;;;;;26.55;14.80;;;;;;;5.78;100.00;102002.19;5023322;28;20039;-62
2021/12/12 08:29:15;;;;;;;27.48;15.40;;;;;;;5.81;100.00;102005.59;5023633;28;20116;-62
2021/12/12 08:31:41;;;;;;;30.55;15.10;;;;;;;5.82;100.00;102012.53;5021168;28;20038;-61
2021/12/12 08:34:10;;;;;;;26.92;15.48;;;;;;;5.83;100.00;102016.84;5020600;28;20030;-62
2021/12/12 08:36:38;;;;;;;29.55;15.50;;;;;;;5.87;100.00;102015.72;5023604;28;20031;-62
2021/12/12 08:39:06;;;;;;;30.77;15.20;;;;;;;5.86;100.00;102017.50;5022278;28;20120;-62
2021/12/12 08:41:32;;;;;;;25.63;14.75;;;;;;;5.94;100.00;102019.63;5018630;28;20034;-62
2021/12/12 08:43:58;;;;;;;29.48;15.18;;;;;;;5.91;100.00;102022.44;5020161;28;20041;-62
2021/12/12 08:46:24;;;;;;;30.52;15.77;;;;;;;5.94;100.00;102024.88;5015988;28;20461;-63
2021/12/12 08:48:51;;;;;;;29.45;15.23;;;;;;;5.90;100.00;102015.50;5018763;28;20030;-62
2021/12/12 08:51:29;;;;;;;29.58;15.52;;;;;;;5.99;100.00;102019.31;5020654;28;20172;-62
2021/12/12 08:53:55;;;;;;;32.17;15.85;;;;;;;5.96;100.00;102025.63;5020623;28;20030;-62
2021/12/12 08:56:40;;;;;;;30.17;14.18;;;;;;;6.01;100.00;102023.53;5023856;28;20029;-62
2021/12/12 08:59:06;;;;;;;29.50;15.95;;;;;;;5.98;100.00;102028.16;5025267;28;20095;-62
2021/12/12 09:01:31;;;;;;;32.47;15.77;;;;;;;6.00;100.00;102040.28;5026171;28;20025;-61
2021/12/12 09:04:00;;;;;;;31.33;17.00;;;;;;;6.03;100.00;102034.81;5025654;28;20487;-62
2021/12/12 09:06:32;;;;;;;34.72;15.77;;;;;;;6.11;100.00;102038.75;5022427;28;20065;-62
2021/12/12 09:09:03;;;;;;;31.23;16.13;;;;;;;6.10;100.00;102037.03;5023477;28;20091;-62
2021/12/12 09:11:51;;;;;;;31.42;15.77;;;;;;;6.08;100.00;102018.75;5024097;28;20295;-62
2021/12/12 09:14:27;;;;;;;31.88;16.10;;;;;;;6.11;100.00;102022.97;5026998;28;20128;-62
2021/12/12 09:17:19;;;;;;;30.00;15.20;;;;;;;6.23;100.00;102040.56;5026972;28;20446;-62
2021/12/12 09:19:54;;;;;;;29.40;15.55;;;;;;;6.17;100.00;102043.63;5003690;28;20406;-62
2021/12/12 09:22:31;;;;;;;35.03;16.00;;;;;;;6.24;100.00;102042.25;5023807;28;20112;-62
2021/12/12 09:25:31;;;;;;;29.85;15.23;;;;;;;6.19;100.00;102055.75;5030226;28;20028;-62
2021/12/12 09:28:21;;;;;;;33.60;16.10;;;;;;;6.17;100.00;102054.97;5036574;28;20086;-62
2021/12/12 09:30:47;;;;;;;29.25;14.00;;;;;;;6.26;100.00;102069.31;5032380;28;20060;-62
2021/12/12 09:33:33;;;;;;;33.92;15.48;;;;;;;6.22;100.00;102062.56;5031981;28;20477;-62
2021/12/12 09:36:17;;;;;;;35.65;16.02;;;;;;;6.23;100.00;102061.66;5029840;28;20037;-63
2021/12/12 09:38:48;;;;;;;29.20;14.68;;;;;;;6.31;100.00;102067.22;5032106;28;20041;-62
2021/12/12 09:41:23;;;;;;;30.02;14.00;;;;;;;6.31;100.00;102059.31;5028222;28;20026;-63
2021/12/12 09:44:03;;;;;;;30.83;15.45;;;;;;;6.30;100.00;102075.22;5034766;28;20037;-62
2021/12/12 09:47:24;;;;;;;28.80;14.80;;;;;;;6.47;100.00;102071.47;5034234;28;20490;-58
2021/12/12 09:53:23;;;;;;;28.77;14.60;;;;;;;6.42;100.00;102086.75;5027338;28;20044;-60
2021/12/12 09:56:36;;;;;;;34.28;15.05;;;;;;;6.41;100.00;102088.53;5026762;28;20033;-64
2021/12/12 09:59:04;;;;;;;29.02;14.63;;;;;;;6.49;100.00;102084.53;4999097;28;20510;-61
2021/12/12 10:01:37;;;;;;;30.17;15.13;;;;;;;6.42;100.00;102073.56;5026338;28;20120;-60
2021/12/12 10:04:27;;;;;;;29.70;15.57;;;;;;;6.48;100.00;102081.06;5026477;28;20486;-60
2021/12/12 10:07:04;;;;;;;35.42;15.45;;;;;;;6.50;100.00;102076.53;5025078;28;20069;-60
2021/12/12 10:09:42;;;;;;;30.30;14.65;;;;;;;6.51;100.00;102078.22;5025812;28;20037;-60
2021/12/12 10:12:15;;;;;;;31.95;15.30;;;;;;;6.53;100.00;102089.50;5023228;28;20034;-60
2021/12/12 10:14:46;;;;;;;32.67;15.68;;;;;;;6.53;100.00;102081.59;5025923;28;20084;-60
2021/12/12 10:17:25;;;;;;;31.77;15.48;;;;;;;6.54;100.00;102078.00;5023762;28;20029;-59
2021/12/12 10:19:58;;;;;;;31.98;15.77;;;;;;;6.58;100.00;102076.84;5025392;28;20036;-61
2021/12/12 10:23:01;;;;;;;30.85;15.77;;;;;;;6.61;100.00;102077.59;5030525;28;20041;-61
2021/12/12 10:25:35;;;;;;;32.50;15.40;;;;;;;6.64;100.00;102087.91;5038702;28;20037;-61
2021/12/12 10:28:06;;;;;;;33.28;15.98;;;;;;;6.62;100.00;102079.28;5029893;28;20307;-61
2021/12/12 10:30:43;;;;;;;28.13;14.43;;;;;;;6.67;100.00;102078.00;5031054;28;20029;-61
2021/12/12 10:33:24;;;;;;;33.20;14.98;;;;;;;6.67;100.00;102074.53;5028768;28;20060;-61
2021/12/12 10:36:01;;;;;;;33.42;15.85;;;;;;;6.70;100.00;102085.72;5025773;28;20034;-61
2021/12/12 10:38:41;;;;;;;31.88;15.00;;;;;;;6.79;100.00;102086.88;5030323;28;20398;-61
2021/12/12 10:41:17;;;;;;;32.45;16.08;;;;;;;6.73;100.00;102082.03;5030654;28;20037;-60
2021/12/12 10:43:53;;;;;;;33.50;16.35;;;;;;;6.70;100.00;102074.31;5030406;28;20030;-61
2021/12/12 10:46:28;;;;;;;34.90;16.25;;;;;;;6.76;100.00;102084.44;5030230;28;20044;-60
2021/12/12 10:49:04;;;;;;;38.42;16.92;;;;;;;6.68;100.00;102069.16;5028460;28;20045;-61
2021/12/12 10:51:37;;;;;;;32.63;17.30;;;;;;;6.69;100.00;102077.91;5031966;28;20041;-61
2021/12/12 10:54:13;;;;;;;39.67;17.55;;;;;;;6.73;100.00;102076.75;5021596;28;20565;-61
2021/12/12 10:56:48;;;;;;;32.92;16.75;;;;;;;6.74;100.00;102086.34;5034483;28;20112;-61
2021/12/12 10:59:27;;;;;;;33.38;17.27;;;;;;;6.79;100.00;102084.25;5029966;28;20572;-61
2021/12/12 11:01:58;;;;;;;36.92;17.63;;;;;;;6.77;100.00;102088.78;5031221;28;20064;-60
2021/12/12 11:04:47;;;;;;;33.85;17.63;;;;;;;6.80;100.00;102088.56;5032226;28;20049;-60
2021/12/12 11:07:43;;;;;;;35.47;17.33;;;;;;;6.80;100.00;102088.56;5028262;28;20044;-61
2021/12/12 11:10:13;;;;;;;33.45;16.77;;;;;;;6.84;100.00;102094.47;5026253;28;20044;-62
2021/12/12 11:12:45;;;;;;;31.13;16.00;;;;;;;6.84;100.00;102082.13;5029056;28;20034;-61
2021/12/12 11:15:13;;;;;;;32.17;17.67;;;;;;;6.85;100.00;102085.59;5029999;28;20061;-62
2021/12/12 11:17:44;;;;;;;32.33;17.05;;;;;;;6.85;100.00;102083.81;5024753;28;20378;-61
2021/12/12 11:20:44;;;;;;;32.50;17.02;;;;;;;6.95;100.00;102077.88;5029366;28;20106;-61
2021/12/12 11:23:17;;;;;;;29.77;16.38;;;;;;;6.95;100.00;102075.25;4987533;28;20033;-61
2021/12/12 11:25:51;;;;;;;25.95;15.60;;;;;;;7.05;100.00;102071.03;5027359;28;20029;-61
2021/12/12 11:28:23;;;;;;;31.42;16.00;;;;;;;6.98;100.00;102080.31;5029357;28;20033;-61
2021/12/12 11:31:04;;;;;;;28.50;15.90;;;;;;;7.06;100.00;102072.72;5031909;28;20394;-62
2021/12/12 11:33:32;;;;;;;23.92;13.98;;;;;;;7.09;100.00;102075.16;5021719;28;20041;-60
2021/12/12 11:36:00;;;;;;;25.55;14.40;;;;;;;7.05;100.00;102068.38;5024721;28;20088;-61
2021/12/12 11:38:41;;;;;;;26.17;14.63;;;;;;;7.23;100.00;102066.25;5029361;28;20084;-61
2021/12/12 11:41:20;;;;;;;24.52;13.85;;;;;;;7.18;100.00;102078.06;5028434;28;20033;-62
2021/12/12 11:44:03;;;;;;;25.05;14.77;;;;;;;7.18;100.00;102072.78;5028777;28;20084;-61
2021/12/12 11:46:34;;;;;;;26.33;14.20;;;;;;;7.17;100.00;102079.03;5025135;28;20043;-61
2021/12/12 11:49:10;;;;;;;25.15;14.80;;;;;;;7.23;100.00;102074.19;5025196;28;20060;-62
2021/12/12 11:51:50;;;;;;;24.95;13.60;;;;;;;7.23;100.00;102078.59;5037897;28;20030;-61